Time;durP1;ratioP1;P1;durP2;ratioP2;P2;SDS_P1;SDS_P2;PMS_P1;PMS_P2;Temp;Humidity;BMP_temperature;BMP_pressure;BME280_temperature;BME280_humidity;BME280_pressure;Samples;Min_cycle;Max_cycle;Signal;HPM_P1;HPM_P2
2021/10/24 00:03:10;;;;;;;15.00;10.85;;;;;;;;;;10462960;28;20048;-82
2021/10/24 00:08:11;;;;;;;23.33;13.45;;;;;;;;;;10462700;28;20178;-81
2021/10/24 00:13:12;;;;;;;19.10;14.10;;;;;;;;;;10462365;28;20384;-82
2021/10/24 00:18:13;;;;;;;18.25;12.10;;;;;;;;;;10461874;28;20032;-82
2021/10/24 00:23:14;;;;;;;15.25;12.93;;;;;;;;;;10462002;28;20035;-82
2021/10/24 00:28:14;;;;;;;15.80;12.68;;;;;;;;;;10460743;28;20366;-81
2021/10/24 00:33:15;;;;;;;17.50;14.27;;;;;;;;;;10460309;28;20029;-82
2021/10/24 00:38:15;;;;;;;15.52;13.18;;;;;;;;;;10461253;28;20527;-82
2021/10/24 00:43:15;;;;;;;15.80;12.05;;;;;;;;;;10461299;28;20123;-82
2021/10/24 00:48:15;;;;;;;20.17;12.52;;;;;;;;;;10460893;28;20529;-82
2021/10/24 00:53:16;;;;;;;15.40;13.65;;;;;;;;;;10459876;28;20037;-82
2021/10/24 00:58:17;;;;;;;22.70;13.40;;;;;;;;;;10461160;28;20021;-81
2021/10/24 01:03:17;;;;;;;25.52;14.23;;;;;;;;;;10458946;28;20400;-82
2021/10/24 01:08:17;;;;;;;15.77;12.30;;;;;;;;;;10459301;28;20039;-82
2021/10/24 01:13:17;;;;;;;22.05;14.13;;;;;;;;;;10459833;28;20052;-81
2021/10/24 01:18:18;;;;;;;15.00;13.48;;;;;;;;;;10457781;28;20036;-81
2021/10/24 01:23:22;;;;;;;21.70;13.60;;;;;;;;;;10460100;28;20037;-81
2021/10/24 01:28:22;;;;;;;22.38;13.68;;;;;;;;;;10456847;28;20168;-81
2021/10/24 01:33:23;;;;;;;22.70;13.95;;;;;;;;;;10459052;28;20117;-81
2021/10/24 01:38:24;;;;;;;20.95;12.00;;;;;;;;;;10457418;28;20029;-81
2021/10/24 01:43:24;;;;;;;15.02;13.27;;;;;;;;;;10458385;28;20031;-81
2021/10/24 01:48:24;;;;;;;18.13;13.05;;;;;;;;;;10456987;28;20467;-82
2021/10/24 01:53:29;;;;;;;16.45;12.93;;;;;;;;;;10458406;28;20397;-81
2021/10/24 01:58:29;;;;;;;18.58;14.40;;;;;;;;;;10457313;28;20416;-82
2021/10/24 02:03:29;;;;;;;22.02;15.13;;;;;;;;;;10455966;28;20039;-83
2021/10/24 02:08:30;;;;;;;17.58;15.02;;;;;;;;;;10457742;28;20091;-82
2021/10/24 02:13:30;;;;;;;18.23;14.05;;;;;;;;;;10458019;28;20128;-82
2021/10/24 02:18:30;;;;;;;18.23;15.13;;;;;;;;;;10458027;28;20033;-81
2021/10/24 02:23:30;;;;;;;18.88;15.93;;;;;;;;;;10459133;28;20037;-80
2021/10/24 02:28:30;;;;;;;26.65;15.77;;;;;;;;;;10464075;28;20452;-81
2021/10/24 02:33:31;;;;;;;17.67;14.68;;;;;;;;;;10501887;28;20009;-79
2021/10/24 02:38:31;;;;;;;18.20;14.95;;;;;;;;;;10489970;28;20466;-80
2021/10/24 02:43:31;;;;;;;19.85;14.65;;;;;;;;;;10467409;28;20113;-82
2021/10/24 02:48:32;;;;;;;21.02;15.52;;;;;;;;;;10464829;28;20080;-81
2021/10/24 02:53:32;;;;;;;20.85;15.55;;;;;;;;;;10458299;28;20041;-81
2021/10/24 02:58:32;;;;;;;24.85;14.50;;;;;;;;;;10458894;28;20027;-81
2021/10/24 03:03:32;;;;;;;27.42;16.00;;;;;;;;;;10458299;28;20116;-81
2021/10/24 03:08:32;;;;;;;24.67;14.73;;;;;;;;;;10457892;28;20028;-81
2021/10/24 03:13:33;;;;;;;22.23;13.98;;;;;;;;;;10460578;28;20049;-82
2021/10/24 03:18:33;;;;;;;30.95;16.75;;;;;;;;;;10466785;28;20033;-82
2021/10/24 03:23:33;;;;;;;19.02;14.60;;;;;;;;;;10468576;28;20029;-82
2021/10/24 03:28:36;;;;;;;20.73;14.63;;;;;;;;;;10470293;28;20063;-81
2021/10/24 03:33:36;;;;;;;23.35;16.75;;;;;;;;;;10462290;28;20115;-81
2021/10/24 03:38:36;;;;;;;17.38;14.80;;;;;;;;;;10462069;28;20115;-81
2021/10/24 03:43:37;;;;;;;26.55;15.88;;;;;;;;;;10463031;28;20096;-81
2021/10/24 03:48:37;;;;;;;30.95;15.93;;;;;;;;;;10463144;28;20043;-81
2021/10/24 03:53:37;;;;;;;32.78;18.42;;;;;;;;;;10465290;28;20120;-82
2021/10/24 03:58:37;;;;;;;25.88;17.70;;;;;;;;;;10467687;28;20155;-81
2021/10/24 04:03:37;;;;;;;29.33;16.10;;;;;;;;;;10466399;28;20140;-81
2021/10/24 04:08:38;;;;;;;15.55;13.75;;;;;;;;;;10463678;28;20060;-81
2021/10/24 04:13:38;;;;;;;18.13;16.25;;;;;;;;;;10464137;28;20041;-82
2021/10/24 04:18:38;;;;;;;24.10;16.80;;;;;;;;;;10463745;28;20021;-82
2021/10/24 04:23:38;;;;;;;18.70;13.90;;;;;;;;;;10465212;28;20033;-81
2021/10/24 04:28:38;;;;;;;17.95;15.52;;;;;;;;;;10460056;28;20370;-82
2021/10/24 04:33:39;;;;;;;17.08;15.35;;;;;;;;;;10459845;28;20071;-82
2021/10/24 04:38:39;;;;;;;16.63;14.65;;;;;;;;;;10469535;28;20446;-81
2021/10/24 04:43:39;;;;;;;18.13;16.25;;;;;;;;;;10460112;28;20033;-81
2021/10/24 04:48:39;;;;;;;20.17;16.08;;;;;;;;;;10459223;28;20029;-82
2021/10/24 04:53:39;;;;;;;19.85;14.80;;;;;;;;;;10460697;28;20656;-81
2021/10/24 04:58:40;;;;;;;18.10;15.13;;;;;;;;;;10459273;28;20032;-82
2021/10/24 05:03:40;;;;;;;25.75;16.45;;;;;;;;;;10462964;28;20037;-81
2021/10/24 05:08:40;;;;;;;19.85;16.42;;;;;;;;;;10462717;28;20097;-81
2021/10/24 05:13:41;;;;;;;19.52;16.83;;;;;;;;;;10462181;28;20037;-81
2021/10/24 05:18:41;;;;;;;26.20;16.45;;;;;;;;;;10460880;28;20048;-81
2021/10/24 05:23:41;;;;;;;22.05;16.70;;;;;;;;;;10459470;28;20040;-81
2021/10/24 05:28:41;;;;;;;27.35;17.52;;;;;;;;;;10458460;28;20054;-81
2021/10/24 05:33:42;;;;;;;20.58;15.00;;;;;;;;;;10458657;28;20025;-82
2021/10/24 05:38:42;;;;;;;17.90;13.73;;;;;;;;;;10458413;28;20112;-81
2021/10/24 05:43:42;;;;;;;20.93;16.07;;;;;;;;;;10458585;28;20278;-81
2021/10/24 05:48:42;;;;;;;16.90;15.27;;;;;;;;;;10457544;28;20277;-80
2021/10/24 05:53:43;;;;;;;25.25;14.60;;;;;;;;;;10462292;28;20507;-81
2021/10/24 05:58:43;;;;;;;17.77;15.50;;;;;;;;;;10457438;28;20029;-81
2021/10/24 06:03:43;;;;;;;16.88;14.48;;;;;;;;;;10457848;28;20032;-82
2021/10/24 06:08:44;;;;;;;18.50;15.73;;;;;;;;;;10460596;28;20063;-81
2021/10/24 06:13:45;;;;;;;17.05;15.10;;;;;;;;;;10458733;28;20029;-81
2021/10/24 06:18:46;;;;;;;25.02;15.07;;;;;;;;;;10455603;28;20021;-81
2021/10/24 06:23:46;;;;;;;16.88;14.15;;;;;;;;;;10455573;28;20560;-81
2021/10/24 06:28:46;;;;;;;15.45;13.65;;;;;;;;;;10456933;28;20554;-82
2021/10/24 06:33:46;;;;;;;20.98;15.82;;;;;;;;;;10457538;28;20036;-81
2021/10/24 06:38:46;;;;;;;24.95;15.38;;;;;;;;;;10456436;28;20036;-81
2021/10/24 06:43:47;;;;;;;19.30;14.15;;;;;;;;;;10456308;28;20021;-81
2021/10/24 06:48:47;;;;;;;19.63;14.95;;;;;;;;;;10456821;28;20155;-81
2021/10/24 06:53:47;;;;;;;19.35;14.60;;;;;;;;;;10460203;28;20040;-81
2021/10/24 06:58:47;;;;;;;18.58;13.40;;;;;;;;;;10457963;28;20029;-81
2021/10/24 07:03:48;;;;;;;16.35;12.70;;;;;;;;;;10460928;28;20437;-81
2021/10/24 07:08:48;;;;;;;21.33;13.75;;;;;;;;;;10460971;28;20033;-81
2021/10/24 07:13:48;;;;;;;13.77;12.38;;;;;;;;;;10459023;28;20029;-81
2021/10/24 07:18:48;;;;;;;16.38;13.73;;;;;;;;;;10457973;28;20029;-80
2021/10/24 07:23:50;;;;;;;15.73;12.93;;;;;;;;;;10455114;28;20128;-81
2021/10/24 07:28:51;;;;;;;15.88;14.23;;;;;;;;;;10453174;28;20037;-81
2021/10/24 07:33:51;;;;;;;14.80;10.23;;;;;;;;;;10455084;28;20051;-80
2021/10/24 07:38:51;;;;;;;10.70;9.00;;;;;;;;;;10417820;28;20056;-81
2021/10/24 07:43:52;;;;;;;9.23;7.72;;;;;;;;;;10455442;28;20048;-79
2021/10/24 07:48:52;;;;;;;13.15;7.00;;;;;;;;;;10455667;28;20044;-79
2021/10/24 07:53:53;;;;;;;8.30;5.87;;;;;;;;;;10453449;28;20033;-79
2021/10/24 07:58:53;;;;;;;7.87;6.53;;;;;;;;;;10453977;28;20292;-79
2021/10/24 08:03:53;;;;;;;7.13;6.28;;;;;;;;;;10461873;28;20372;-78
2021/10/24 08:08:53;;;;;;;6.75;5.97;;;;;;;;;;10466404;28;20033;-82
2021/10/24 08:13:54;;;;;;;4.63;4.13;;;;;;;;;;10467492;28;20075;-82
2021/10/24 08:18:54;;;;;;;7.20;5.18;;;;;;;;;;10513785;28;20025;-83
2021/10/24 08:23:54;;;;;;;5.90;5.00;;;;;;;;;;10506668;28;20084;-82
2021/10/24 08:28:55;;;;;;;9.10;5.93;;;;;;;;;;10503586;28;20055;-82
2021/10/24 08:33:56;;;;;;;21.73;5.55;;;;;;;;;;10503743;28;20151;-82
2021/10/24 08:38:57;;;;;;;5.88;5.22;;;;;;;;;;10507344;28;20027;-81
2021/10/24 08:43:58;;;;;;;4.35;4.00;;;;;;;;;;10491371;28;20086;-82
2021/10/24 08:48:59;;;;;;;12.05;6.72;;;;;;;;;;10540684;28;20067;-82
2021/10/24 08:54:00;;;;;;;6.35;5.70;;;;;;;;;;10538990;28;20089;-82
2021/10/24 08:59:00;;;;;;;4.03;3.63;;;;;;;;;;10494763;28;20028;-82
2021/10/24 09:04:07;;;;;;;10.00;4.97;;;;;;;;;;10511346;28;20064;-82
2021/10/24 09:09:11;;;;;;;6.00;5.50;;;;;;;;;;10503966;28;20407;-82
2021/10/24 09:14:11;;;;;;;6.78;6.13;;;;;;;;;;10502944;28;20032;-82
2021/10/24 09:19:15;;;;;;;7.72;4.88;;;;;;;;;;10486201;28;20021;-82
2021/10/24 09:24:15;;;;;;;11.38;4.97;;;;;;;;;;10502388;28;20048;-83
2021/10/24 09:29:16;;;;;;;8.50;4.72;;;;;;;;;;10502758;28;20044;-82
2021/10/24 09:34:19;;;;;;;5.10;4.20;;;;;;;;;;10503443;28;20284;-82
2021/10/24 09:39:19;;;;;;;8.85;5.13;;;;;;;;;;10481787;28;20058;-82
2021/10/24 09:44:21;;;;;;;5.32;4.88;;;;;;;;;;10499927;28;20056;-82
2021/10/24 09:49:24;;;;;;;6.72;5.30;;;;;;;;;;10499513;28;20066;-82
2021/10/24 09:54:25;;;;;;;5.10;4.32;;;;;;;;;;10499456;28;20421;-83
2021/10/24 09:59:25;;;;;;;15.60;5.38;;;;;;;;;;10482976;28;20028;-82
2021/10/24 10:04:25;;;;;;;10.02;5.00;;;;;;;;;;10483923;28;20388;-82
2021/10/24 10:09:26;;;;;;;5.53;4.43;;;;;;;;;;10501262;28;20040;-82
2021/10/24 10:14:27;;;;;;;5.85;4.95;;;;;;;;;;10500961;28;20108;-82
2021/10/24 10:19:47;;;;;;;9.95;4.70;;;;;;;;;;10483711;28;20379;-82
2021/10/24 10:24:54;;;;;;;6.45;4.65;;;;;;;;;;10498338;28;20047;-82
2021/10/24 10:29:56;;;;;;;4.85;4.35;;;;;;;;;;10500913;28;20111;-82
2021/10/24 10:34:56;;;;;;;4.95;4.32;;;;;;;;;;10500960;28;20031;-82
2021/10/24 10:39:56;;;;;;;5.45;4.95;;;;;;;;;;10483204;28;20111;-82
2021/10/24 10:45:15;;;;;;;5.93;4.05;;;;;;;;;;10470153;28;20033;-83
2021/10/24 10:50:27;;;;;;;5.55;4.30;;;;;;;;;;10499323;28;20480;-82
2021/10/24 10:55:48;;;;;;;7.82;5.75;;;;;;;;;;10497601;28;20039;-82
2021/10/24 11:00:54;;;;;;;8.48;5.60;;;;;;;;;;10498478;28;20032;-82
2021/10/24 11:05:54;;;;;;;9.25;6.05;;;;;;;;;;10497733;28;20078;-82
2021/10/24 11:10:54;;;;;;;15.95;4.18;;;;;;;;;;10479461;28;20033;-82
2021/10/24 11:15:55;;;;;;;5.30;4.80;;;;;;;;;;10497395;28;20476;-83
2021/10/24 11:20:55;;;;;;;6.60;5.13;;;;;;;;;;10479525;28;20051;-82
2021/10/24 11:25:55;;;;;;;6.35;5.75;;;;;;;;;;10479233;28;20049;-82
2021/10/24 11:31:01;;;;;;;4.85;4.47;;;;;;;;;;10484136;28;20050;-82
2021/10/24 11:36:03;;;;;;;4.20;3.55;;;;;;;;;;10504434;28;20028;-82
2021/10/24 11:41:05;;;;;;;9.35;4.95;;;;;;;;;;10491828;28;20035;-82
2021/10/24 11:46:08;;;;;;;6.53;4.32;;;;;;;;;;10489932;28;20032;-83
2021/10/24 11:51:08;;;;;;;4.25;3.33;;;;;;;;;;10506811;28;20034;-82
2021/10/24 11:56:10;;;;;;;12.32;3.55;;;;;;;;;;10505630;28;20112;-82
2021/10/24 12:01:17;;;;;;;4.10;3.70;;;;;;;;;;10473219;28;20029;-81
2021/10/24 12:06:17;;;;;;;4.15;3.53;;;;;;;;;;10505519;28;20033;-82
2021/10/24 12:11:18;;;;;;;3.67;3.38;;;;;;;;;;10488692;28;20024;-83
2021/10/24 12:16:23;;;;;;;6.28;3.72;;;;;;;;;;10506497;28;20020;-83
2021/10/24 12:21:23;;;;;;;6.25;3.90;;;;;;;;;;10487093;28;20021;-79
2021/10/24 12:26:32;;;;;;;4.75;3.63;;;;;;;;;;10469129;28;20053;-80
2021/10/24 12:31:32;;;;;;;7.50;4.45;;;;;;;;;;10504620;28;20020;-80
2021/10/24 12:36:33;;;;;;;3.97;3.72;;;;;;;;;;10484623;28;20020;-79
2021/10/24 12:41:33;;;;;;;4.13;3.72;;;;;;;;;;10502259;28;20058;-80
2021/10/24 12:46:34;;;;;;;4.55;3.88;;;;;;;;;;10502466;28;20116;-80
2021/10/24 12:51:34;;;;;;;4.35;4.03;;;;;;;;;;10485571;28;20036;-83
2021/10/24 12:56:37;;;;;;;3.20;3.00;;;;;;;;;;10486075;28;20485;-86
2021/10/24 13:01:37;;;;;;;5.80;3.50;;;;;;;;;;10506294;28;20420;-86
2021/10/24 13:06:37;;;;;;;4.15;3.17;;;;;;;;;;10504381;28;20032;-86
2021/10/24 13:11:38;;;;;;;3.03;2.72;;;;;;;;;;10523570;28;20031;-85
2021/10/24 13:16:38;;;;;;;5.82;3.45;;;;;;;;;;10507321;28;20021;-85
2021/10/24 13:26:40;;;;;;;3.70;3.40;;;;;;;;;;10502332;28;20057;-86
2021/10/24 13:31:40;;;;;;;3.85;3.17;;;;;;;;;;10485768;28;20024;-87
2021/10/24 13:36:40;;;;;;;3.72;3.42;;;;;;;;;;10503379;28;20115;-87
2021/10/24 13:41:41;;;;;;;5.13;3.75;;;;;;;;;;10484928;28;20119;-87
2021/10/24 13:46:41;;;;;;;3.30;3.00;;;;;;;;;;10502591;28;20119;-87
2021/10/24 13:51:41;;;;;;;5.93;4.13;;;;;;;;;;10502725;28;20032;-87
2021/10/24 13:56:42;;;;;;;11.03;3.90;;;;;;;;;;10484526;28;20032;-83
2021/10/24 14:01:42;;;;;;;6.68;4.53;;;;;;;;;;10501978;28;20280;-82
2021/10/24 14:06:42;;;;;;;8.15;5.72;;;;;;;;;;10476496;28;20068;-83
2021/10/24 14:11:43;;;;;;;6.28;5.68;;;;;;;;;;10440912;28;20017;-83
2021/10/24 14:16:43;;;;;;;4.55;4.15;;;;;;;;;;10458317;28;20469;-81
2021/10/24 14:21:43;;;;;;;4.65;4.22;;;;;;;;;;10429358;28;20041;-83
2021/10/24 14:26:44;;;;;;;6.72;4.85;;;;;;;;;;10384759;28;20089;-82
2021/10/24 14:31:45;;;;;;;8.48;4.95;;;;;;;;;;10377710;28;20054;-80
2021/10/24 14:36:46;;;;;;;4.90;4.13;;;;;;;;;;10423464;28;20116;-80
2021/10/24 14:41:46;;;;;;;9.65;4.70;;;;;;;;;;10457926;28;20525;-83
2021/10/24 14:46:46;;;;;;;13.15;4.85;;;;;;;;;;10438386;28;20463;-82
2021/10/24 14:51:46;;;;;;;5.25;4.75;;;;;;;;;;10455648;28;20037;-81
2021/10/24 14:56:46;;;;;;;4.40;3.92;;;;;;;;;;10454642;28;20095;-84
2021/10/24 15:01:47;;;;;;;5.20;4.40;;;;;;;;;;10435301;28;20485;-83
2021/10/24 15:06:47;;;;;;;6.05;4.72;;;;;;;;;;10417058;28;20035;-83
2021/10/24 15:11:48;;;;;;;11.30;4.85;;;;;;;;;;10402523;28;20060;-82
2021/10/24 15:22:15;;;;;;;6.60;4.80;;;;;;;;;;10420949;28;20048;-82
2021/10/24 15:27:15;;;;;;;10.98;4.68;;;;;;;;;;10452589;28;20148;-80
2021/10/24 15:32:15;;;;;;;5.85;4.38;;;;;;;;;;10467135;28;20033;-82
2021/10/24 15:37:15;;;;;;;5.10;3.92;;;;;;;;;;10481670;28;20075;-80
2021/10/24 15:42:16;;;;;;;4.40;3.92;;;;;;;;;;10494233;28;20024;-80
2021/10/24 15:47:17;;;;;;;6.20;4.03;;;;;;;;;;10468204;28;20036;-81
2021/10/24 15:52:17;;;;;;;6.07;5.30;;;;;;;;;;10464414;28;20032;-81
2021/10/24 15:57:18;;;;;;;12.70;5.75;;;;;;;;;;10464367;28;20277;-81
2021/10/24 16:02:18;;;;;;;6.35;4.38;;;;;;;;;;10464734;28;20116;-81
2021/10/24 16:07:21;;;;;;;6.78;4.65;;;;;;;;;;10445999;28;20033;-81
2021/10/24 16:12:21;;;;;;;5.03;3.70;;;;;;;;;;10462732;28;20029;-81
2021/10/24 16:17:22;;;;;;;9.88;4.00;;;;;;;;;;10446165;28;20021;-81
2021/10/24 16:22:22;;;;;;;5.03;4.38;;;;;;;;;;10446785;28;20037;-81
2021/10/24 16:27:22;;;;;;;15.93;5.88;;;;;;;;;;10461612;28;20114;-82
2021/10/24 16:32:22;;;;;;;6.38;4.35;;;;;;;;;;10462350;28;20044;-82
2021/10/24 16:37:23;;;;;;;9.02;5.20;;;;;;;;;;10443829;28;20024;-81
2021/10/24 16:42:23;;;;;;;12.87;6.60;;;;;;;;;;10460892;28;20560;-81
2021/10/24 16:47:23;;;;;;;10.10;5.47;;;;;;;;;;10460270;28;20317;-81
2021/10/24 16:52:24;;;;;;;6.45;4.63;;;;;;;;;;10462850;28;20162;-82
2021/10/24 16:57:24;;;;;;;6.32;4.93;;;;;;;;;;10460374;28;20104;-82
2021/10/24 17:02:25;;;;;;;12.20;8.20;;;;;;;;;;10460253;28;20028;-81
2021/10/24 17:07:25;;;;;;;8.55;7.70;;;;;;;;;;10459989;28;20033;-81
2021/10/24 17:12:26;;;;;;;14.45;9.93;;;;;;;;;;10459933;28;20029;-81
2021/10/24 17:17:26;;;;;;;14.48;8.57;;;;;;;;;;10459607;28;20043;-82
2021/10/24 17:22:26;;;;;;;11.18;6.15;;;;;;;;;;10442214;28;20370;-82
2021/10/24 17:27:26;;;;;;;11.40;6.13;;;;;;;;;;10458999;28;20057;-82
2021/10/24 17:32:27;;;;;;;7.65;5.43;;;;;;;;;;10458998;28;20446;-81
2021/10/24 17:37:27;;;;;;;9.10;5.85;;;;;;;;;;10459015;28;20052;-82
2021/10/24 17:42:27;;;;;;;6.35;5.75;;;;;;;;;;10459465;28;20465;-82
2021/10/24 17:47:27;;;;;;;14.52;8.18;;;;;;;;;;10458698;28;20037;-82
2021/10/24 17:52:27;;;;;;;12.70;6.65;;;;;;;;;;10457963;28;20036;-82
2021/10/24 17:57:27;;;;;;;6.50;5.85;;;;;;;;;;10457758;28;20036;-82
2021/10/24 18:02:28;;;;;;;10.18;7.63;;;;;;;;;;10458062;28;20391;-82
2021/10/24 18:07:29;;;;;;;9.52;7.30;;;;;;;;;;10463724;28;20037;-82
2021/10/24 18:12:29;;;;;;;13.87;8.40;;;;;;;;;;10460591;28;20480;-82
2021/10/24 18:17:29;;;;;;;11.02;6.55;;;;;;;;;;10459883;28;20297;-82
2021/10/24 18:22:30;;;;;;;11.25;5.60;;;;;;;;;;10441846;28;20124;-82
2021/10/24 18:27:30;;;;;;;9.55;6.20;;;;;;;;;;10409576;28;20060;-82
2021/10/24 18:32:30;;;;;;;9.95;7.80;;;;;;;;;;10418146;28;20068;-82
2021/10/24 18:37:32;;;;;;;11.13;5.97;;;;;;;;;;10417221;28;20033;-81
2021/10/24 18:42:32;;;;;;;10.55;5.63;;;;;;;;;;10399455;28;20040;-82
2021/10/24 18:47:35;;;;;;;7.30;6.60;;;;;;;;;;10416725;28;20040;-82
2021/10/24 18:52:35;;;;;;;6.05;5.38;;;;;;;;;;10417276;28;20544;-82
2021/10/24 18:57:35;;;;;;;7.28;6.60;;;;;;;;;;10414818;28;20026;-82
2021/10/24 19:02:38;;;;;;;8.07;6.57;;;;;;;;;;10415161;28;20472;-82
2021/10/24 19:07:39;;;;;;;12.10;6.00;;;;;;;;;;10414840;28;20080;-82
2021/10/24 19:12:39;;;;;;;7.47;6.70;;;;;;;;;;10415038;28;20049;-82
2021/10/24 19:17:39;;;;;;;13.38;7.13;;;;;;;;;;10399042;28;20270;-82
2021/10/24 19:22:39;;;;;;;8.25;6.88;;;;;;;;;;10416434;28;20112;-82
2021/10/24 19:27:40;;;;;;;10.75;7.05;;;;;;;;;;10396222;28;20421;-82
2021/10/24 19:32:40;;;;;;;15.23;8.80;;;;;;;;;;10414316;28;20044;-82
2021/10/24 19:37:41;;;;;;;11.80;6.32;;;;;;;;;;10414547;28;20108;-82
2021/10/24 19:42:41;;;;;;;12.02;8.07;;;;;;;;;;10397237;28;20025;-82
2021/10/24 19:47:42;;;;;;;16.08;8.40;;;;;;;;;;10414005;28;20029;-82
2021/10/24 19:52:42;;;;;;;12.32;7.10;;;;;;;;;;10414575;28;20040;-83
2021/10/24 19:57:43;;;;;;;20.85;9.18;;;;;;;;;;10400600;28;20033;-82
2021/10/24 20:02:44;;;;;;;18.33;9.32;;;;;;;;;;10403754;28;20030;-82
2021/10/24 20:07:44;;;;;;;9.10;7.32;;;;;;;;;;10403718;28;20033;-82
2021/10/24 20:12:44;;;;;;;9.00;7.45;;;;;;;;;;10421654;28;20473;-82
2021/10/24 20:17:44;;;;;;;12.23;9.48;;;;;;;;;;10421106;28;20025;-82
2021/10/24 20:22:44;;;;;;;10.35;8.20;;;;;;;;;;10403088;28;20568;-82
2021/10/24 20:27:45;;;;;;;8.20;6.63;;;;;;;;;;10451804;28;20576;-82
2021/10/24 20:32:45;;;;;;;11.90;8.48;;;;;;;;;;10467775;28;20108;-83
2021/10/24 20:37:45;;;;;;;21.80;8.90;;;;;;;;;;10444889;28;20392;-82
2021/10/24 20:42:46;;;;;;;17.15;8.32;;;;;;;;;;10464122;28;20111;-83
2021/10/24 20:47:46;;;;;;;9.85;8.60;;;;;;;;;;10463296;28;20108;-82
2021/10/24 20:52:47;;;;;;;10.95;8.90;;;;;;;;;;10464096;28;20041;-82
2021/10/24 20:57:47;;;;;;;16.35;9.10;;;;;;;;;;10442718;28;20063;-83
2021/10/24 21:02:47;;;;;;;14.50;9.57;;;;;;;;;;10462559;28;20037;-83
2021/10/24 21:07:47;;;;;;;16.02;11.35;;;;;;;;;;10462120;28;20128;-82
2021/10/24 21:12:48;;;;;;;22.92;11.65;;;;;;;;;;10445770;28;20112;-82
2021/10/24 21:17:48;;;;;;;17.88;12.00;;;;;;;;;;10461931;28;20017;-80
2021/10/24 21:22:48;;;;;;;15.75;10.45;;;;;;;;;;10444167;28;20044;-82
2021/10/24 21:27:48;;;;;;;13.73;9.80;;;;;;;;;;10460227;28;20097;-82
2021/10/24 21:32:49;;;;;;;11.52;9.65;;;;;;;;;;10442656;28;20384;-82
2021/10/24 21:37:50;;;;;;;13.15;9.95;;;;;;;;;;10442485;28;20044;-82
2021/10/24 21:42:50;;;;;;;18.77;12.40;;;;;;;;;;10442231;28;20032;-82
2021/10/24 21:47:52;;;;;;;15.38;10.23;;;;;;;;;;10463052;28;20048;-82
2021/10/24 21:52:52;;;;;;;19.73;11.57;;;;;;;;;;10460600;28;20037;-81
2021/10/24 21:57:53;;;;;;;12.65;10.35;;;;;;;;;;10462375;28;20029;-81
2021/10/24 22:02:53;;;;;;;13.20;11.60;;;;;;;;;;10459219;28;20029;-79
2021/10/24 22:07:53;;;;;;;16.92;11.27;;;;;;;;;;10489960;28;20036;-80
2021/10/24 22:12:54;;;;;;;20.00;11.23;;;;;;;;;;10443638;28;20135;-81
2021/10/24 22:17:55;;;;;;;16.88;11.27;;;;;;;;;;10440881;28;20029;-81
2021/10/24 22:22:55;;;;;;;18.83;13.00;;;;;;;;;;10458067;28;20033;-82
2021/10/24 22:27:57;;;;;;;15.13;10.07;;;;;;;;;;10456857;28;20045;-82
2021/10/24 22:32:57;;;;;;;12.30;11.02;;;;;;;;;;10457252;28;20250;-82
2021/10/24 22:37:57;;;;;;;16.40;13.05;;;;;;;;;;10457619;28;20036;-82
2021/10/24 22:42:58;;;;;;;23.00;13.95;;;;;;;;;;10456654;28;20120;-82
2021/10/24 22:47:59;;;;;;;15.25;12.07;;;;;;;;;;10439252;28;20037;-82
2021/10/24 22:52:59;;;;;;;14.75;12.45;;;;;;;;;;10457627;28;20094;-82
2021/10/24 22:57:59;;;;;;;24.52;14.00;;;;;;;;;;10459046;28;20029;-82
2021/10/24 23:03:01;;;;;;;22.13;13.43;;;;;;;;;;10440608;28;20037;-82
2021/10/24 23:08:01;;;;;;;14.80;12.88;;;;;;;;;;10457027;28;20069;-82
2021/10/24 23:13:02;;;;;;;16.08;13.48;;;;;;;;;;10440452;28;20445;-82
2021/10/24 23:18:02;;;;;;;19.20;13.95;;;;;;;;;;10457183;28;20032;-82
2021/10/24 23:23:02;;;;;;;17.52;12.57;;;;;;;;;;10456088;28;20037;-82
2021/10/24 23:28:03;;;;;;;16.00;11.65;;;;;;;;;;10454694;28;20409;-82
2021/10/24 23:33:03;;;;;;;19.20;13.00;;;;;;;;;;10427645;28;20119;-81
2021/10/24 23:38:03;;;;;;;11.35;10.15;;;;;;;;;;10464028;28;20032;-81
2021/10/24 23:43:03;;;;;;;10.27;9.20;;;;;;;;;;10463610;28;20086;-82
2021/10/24 23:48:03;;;;;;;13.30;10.02;;;;;;;;;;10463467;28;20063;-82
2021/10/24 23:53:04;;;;;;;15.10;9.77;;;;;;;;;;10445688;28;20544;-81
2021/10/24 23:58:04;;;;;;;17.45;9.73;;;;;;;;;;10444583;28;20104;-81
